createdAt,value
2019-05-25T00:00:06.531Z,100607.06
2019-05-25T00:02:13.193Z,100605.08
2019-05-25T00:04:19.677Z,100601.09
2019-05-25T00:06:26.054Z,100605.33
2019-05-25T00:08:32.922Z,100603.74
2019-05-25T00:10:39.528Z,100601.81
2019-05-25T00:12:45.943Z,100602.67
2019-05-25T00:14:52.310Z,100606.03
2019-05-25T00:16:58.672Z,100600.56
2019-05-25T00:19:06.589Z,100599.51
2019-05-25T00:21:14.352Z,100597.93
2019-05-25T00:23:20.834Z,100598.28
2019-05-25T00:25:28.934Z,100587.24
2019-05-25T00:27:35.193Z,100601.69
2019-05-25T00:29:45.556Z,100593.91
2019-05-25T00:31:52.122Z,100594.36
2019-05-25T00:33:58.879Z,100587.68
2019-05-25T00:36:05.557Z,100596.52
2019-05-25T00:38:11.926Z,100589.32
2019-05-25T00:40:20.647Z,100586.34
2019-05-25T00:42:27.942Z,100587.74
2019-05-25T00:44:34.195Z,100587.89
2019-05-25T00:46:40.552Z,100586.16
2019-05-25T00:48:47.039Z,100584.39
2019-05-25T00:50:53.389Z,100590.06
2019-05-25T00:52:59.845Z,100586.11
2019-05-25T00:55:08.970Z,100586.48
2019-05-25T00:57:15.423Z,100588.46
2019-05-25T00:59:22.011Z,100589.95
2019-05-25T01:01:28.391Z,100586.86
2019-05-25T01:03:34.725Z,100587.31
2019-05-25T01:05:41.095Z,100579.00
2019-05-25T01:07:47.458Z,100589.18
2019-05-25T01:09:53.712Z,100590.81
2019-05-25T01:12:00.215Z,100587.31
2019-05-25T01:14:07.177Z,100592.33
2019-05-25T01:16:13.526Z,100589.06
2019-05-25T01:18:23.079Z,100578.97
2019-05-25T01:20:29.980Z,100581.15
2019-05-25T01:22:36.503Z,100579.31
2019-05-25T01:24:44.716Z,100573.27
2019-05-25T01:26:50.752Z,100570.22
2019-05-25T01:28:57.758Z,100571.34
2019-05-25T01:31:04.731Z,100571.69
2019-05-25T01:33:10.964Z,100571.22
2019-05-25T01:35:18.784Z,100565.23
2019-05-25T01:37:25.018Z,100570.70
2019-05-25T01:39:31.609Z,100565.22
2019-05-25T01:41:37.843Z,100570.72
2019-05-25T01:43:44.146Z,100563.00
2019-05-25T01:45:52.109Z,100560.56
2019-05-25T01:47:58.392Z,100560.84
2019-05-25T01:50:06.379Z,100557.11
2019-05-25T01:52:12.853Z,100562.97
2019-05-25T01:54:19.102Z,100562.75
2019-05-25T01:56:25.371Z,100559.34
2019-05-25T01:58:31.635Z,100558.80
2019-05-25T02:00:38.591Z,100556.71
2019-05-25T02:02:44.965Z,100550.31
2019-05-25T02:04:51.238Z,100554.48
2019-05-25T02:06:57.695Z,100553.30
2019-05-25T02:09:04.664Z,100550.85
2019-05-25T02:11:11.341Z,100551.26
2019-05-25T02:13:17.595Z,100552.89
2019-05-25T02:15:24.080Z,100558.30
2019-05-25T02:17:30.520Z,100550.86
2019-05-25T02:19:37.103Z,100551.03
2019-05-25T02:21:43.966Z,100549.80
2019-05-25T02:23:50.428Z,100551.84
2019-05-25T02:25:56.799Z,100547.36
2019-05-25T02:28:03.057Z,100541.77
2019-05-25T02:30:11.776Z,100548.63
2019-05-25T02:32:19.775Z,100549.08
2019-05-25T02:34:26.239Z,100546.45
2019-05-25T02:36:32.928Z,100542.90
2019-05-25T02:38:40.200Z,100548.54
2019-05-25T02:40:46.570Z,100551.58
2019-05-25T02:42:54.463Z,100547.95
2019-05-25T02:45:00.839Z,100542.68
2019-05-25T02:47:08.711Z,100543.95
2019-05-25T02:49:17.505Z,100546.44
2019-05-25T02:51:23.789Z,100543.67
2019-05-25T02:53:30.773Z,100549.72
2019-05-25T02:55:37.249Z,100544.40
2019-05-25T02:57:43.604Z,100541.22
2019-05-25T02:59:49.887Z,100546.30
2019-05-25T03:01:56.333Z,100544.39
2019-05-25T03:04:03.729Z,100538.44
2019-05-25T03:06:11.946Z,100535.16
2019-05-25T03:08:18.601Z,100543.55
2019-05-25T03:10:24.948Z,100536.63
2019-05-25T03:12:32.885Z,100536.32
2019-05-25T03:14:39.613Z,100530.30
2019-05-25T03:16:45.908Z,100532.51
2019-05-25T03:18:52.265Z,100529.13
2019-05-25T03:20:58.619Z,100533.24
2019-05-25T03:23:04.879Z,100534.12
2019-05-25T03:25:11.725Z,100540.77
2019-05-25T03:27:18.118Z,100544.48
2019-05-25T03:29:26.087Z,100547.53
2019-05-25T03:31:32.387Z,100540.11
2019-05-25T03:33:39.836Z,100546.31
2019-05-25T03:35:48.105Z,100545.89
2019-05-25T03:37:54.529Z,100545.92
2019-05-25T03:40:00.793Z,100544.10
2019-05-25T03:42:07.037Z,100546.13
2019-05-25T03:44:13.426Z,100545.73
2019-05-25T03:46:20.507Z,100537.28
2019-05-25T03:48:26.735Z,100531.04
2019-05-25T03:50:33.029Z,100531.45
2019-05-25T03:52:39.559Z,100532.28
2019-05-25T03:54:45.940Z,100530.82
2019-05-25T03:56:52.403Z,100538.91
2019-05-25T03:58:58.782Z,100538.28
2019-05-25T04:01:05.249Z,100550.55
2019-05-25T04:03:11.492Z,100538.22
2019-05-25T04:05:17.765Z,100540.05
2019-05-25T04:07:24.746Z,100540.16
2019-05-25T04:09:31.084Z,100543.39
2019-05-25T04:11:37.383Z,100539.61
2019-05-25T04:13:43.821Z,100535.19
2019-05-25T04:15:50.179Z,100536.35
2019-05-25T04:17:56.635Z,100537.38
2019-05-25T04:20:02.908Z,100533.80
2019-05-25T04:22:09.274Z,100522.83
2019-05-25T04:24:18.315Z,100524.42
2019-05-25T04:26:27.447Z,100527.28
2019-05-25T04:28:32.476Z,100525.02
2019-05-25T04:30:38.822Z,100520.73
2019-05-25T04:32:45.060Z,100536.00
2019-05-25T04:34:55.557Z,100537.16
2019-05-25T04:37:02.018Z,100533.00
2019-05-25T04:39:09.421Z,100542.37
2019-05-25T04:41:15.745Z,100541.72
2019-05-25T04:43:22.128Z,100546.72
2019-05-25T04:45:28.891Z,100540.52
2019-05-25T04:47:35.296Z,100536.03
2019-05-25T04:49:43.046Z,100533.69
2019-05-25T04:51:49.314Z,100531.44
2019-05-25T04:53:55.938Z,100535.84
2019-05-25T04:56:03.147Z,100530.17
2019-05-25T04:58:09.527Z,100533.71
2019-05-25T05:00:16.509Z,100537.58
2019-05-25T05:02:23.074Z,100546.72
2019-05-25T05:04:29.433Z,100541.05
2019-05-25T05:06:35.806Z,100546.02
2019-05-25T05:08:42.178Z,100542.98
2019-05-25T05:10:48.529Z,100551.41
2019-05-25T05:12:56.164Z,100547.20
2019-05-25T05:15:02.495Z,100549.23
2019-05-25T05:17:08.859Z,100542.33
2019-05-25T05:19:15.210Z,100542.24
2019-05-25T05:21:21.659Z,100541.39
2019-05-25T05:23:28.219Z,100544.31
2019-05-25T05:25:34.596Z,100543.62
2019-05-25T05:27:40.964Z,100546.16
2019-05-25T05:29:47.322Z,100547.00
2019-05-25T05:31:53.687Z,100551.33
2019-05-25T05:34:00.760Z,100543.36
2019-05-25T05:36:08.707Z,100547.34
2019-05-25T05:38:16.357Z,100550.68
2019-05-25T05:40:22.609Z,100549.86
2019-05-25T05:42:31.446Z,100544.67
2019-05-25T05:44:42.829Z,100554.27
2019-05-25T05:46:50.387Z,100560.02
2019-05-25T05:48:58.169Z,100557.77
2019-05-25T05:51:06.117Z,100560.42
2019-05-25T05:53:12.794Z,100568.94
2019-05-25T05:55:23.536Z,100555.22
2019-05-25T05:57:29.900Z,100552.55
2019-05-25T05:59:36.256Z,100550.30
2019-05-25T06:01:42.635Z,100558.12
2019-05-25T06:03:48.981Z,100550.91
2019-05-25T06:05:55.363Z,100554.88
2019-05-25T06:08:01.708Z,100554.34
2019-05-25T06:10:10.060Z,100558.98
2019-05-25T06:12:16.381Z,100554.81
2019-05-25T06:14:22.759Z,100564.03
2019-05-25T06:16:29.170Z,100568.16
2019-05-25T06:18:35.480Z,100576.70
2019-05-25T06:20:41.736Z,100574.05
2019-05-25T06:22:48.103Z,100580.69
2019-05-25T06:24:54.562Z,100580.33
2019-05-25T06:27:00.924Z,100573.95
2019-05-25T06:29:07.284Z,100580.80
2019-05-25T06:31:13.746Z,100581.25
2019-05-25T06:33:19.994Z,100582.37
2019-05-25T06:35:26.282Z,100583.34
2019-05-25T06:37:32.833Z,100577.22
2019-05-25T06:39:39.194Z,100582.48
2019-05-25T06:41:47.013Z,100589.48
2019-05-25T06:43:53.345Z,100591.73
2019-05-25T06:45:59.739Z,100589.94
2019-05-25T06:48:06.608Z,100592.80
2019-05-25T06:50:14.906Z,100592.84
2019-05-25T06:52:22.186Z,100605.77
2019-05-25T06:54:28.655Z,100603.71
2019-05-25T06:56:35.325Z,100610.70
2019-05-25T06:58:42.192Z,100614.25
2019-05-25T07:00:55.801Z,100616.03
2019-05-25T07:03:02.085Z,100616.84
2019-05-25T07:05:10.373Z,100624.19
2019-05-25T07:07:16.653Z,100623.98
2019-05-25T07:09:23.027Z,100630.65
2019-05-25T07:11:29.591Z,100638.06
2019-05-25T07:13:35.842Z,100630.30
2019-05-25T07:15:42.208Z,100641.59
2019-05-25T07:17:49.233Z,100642.99
2019-05-25T07:19:55.676Z,100640.61
2019-05-25T07:22:02.106Z,100633.20
2019-05-25T07:24:08.479Z,100636.84
2019-05-25T07:26:15.042Z,100634.17
2019-05-25T07:28:21.522Z,100637.84
2019-05-25T07:30:27.882Z,100643.38
2019-05-25T07:32:34.259Z,100638.22
2019-05-25T07:34:40.647Z,100637.77
2019-05-25T07:36:48.083Z,100644.30
2019-05-25T07:38:54.451Z,100636.59
2019-05-25T07:41:00.713Z,100640.99
2019-05-25T07:43:07.101Z,100646.52
2019-05-25T07:45:15.189Z,100650.21
2019-05-25T07:47:22.154Z,100654.05
2019-05-25T07:49:28.418Z,100664.61
2019-05-25T07:51:34.773Z,100667.36
2019-05-25T07:53:41.042Z,100657.30
2019-05-25T07:55:47.297Z,100663.75
2019-05-25T07:57:53.790Z,100669.62
2019-05-25T08:00:00.027Z,100667.13
2019-05-25T08:02:06.394Z,100669.05
2019-05-25T08:04:13.975Z,100667.34
2019-05-25T08:06:20.359Z,100669.31
2019-05-25T08:08:26.601Z,100670.60
2019-05-25T08:10:32.878Z,100673.86
2019-05-25T08:12:40.154Z,100679.31
2019-05-25T08:14:47.115Z,100679.26
2019-05-25T08:16:53.392Z,100675.66
2019-05-25T08:18:59.643Z,100677.90
2019-05-25T08:21:06.320Z,100665.62
2019-05-25T08:23:12.689Z,100672.61
2019-05-25T08:25:19.555Z,100669.00
2019-05-25T08:27:25.812Z,100674.53
2019-05-25T08:29:32.062Z,100683.12
2019-05-25T08:31:38.441Z,100679.12
2019-05-25T08:33:44.807Z,100678.84
2019-05-25T08:38:03.074Z,100682.65
2019-05-25T08:40:10.020Z,100689.38
2019-05-25T08:42:18.242Z,100683.14
2019-05-25T08:44:24.593Z,100691.66
2019-05-25T08:46:31.368Z,100683.77
2019-05-25T08:48:38.138Z,100690.27
2019-05-25T08:50:44.417Z,100686.19
2019-05-25T08:52:50.868Z,100679.80
2019-05-25T08:54:58.261Z,100682.41
2019-05-25T08:57:04.622Z,100688.56
2019-05-25T08:59:10.993Z,100694.04
2019-05-25T09:01:17.230Z,100689.48
2019-05-25T09:03:23.596Z,100691.39
2019-05-25T09:05:30.263Z,100689.86
2019-05-25T09:07:36.532Z,100690.09
2019-05-25T09:09:42.898Z,100690.96
2019-05-25T09:11:49.275Z,100691.14
2019-05-25T09:13:56.133Z,100684.72
2019-05-25T09:16:03.000Z,100691.77
2019-05-25T09:18:11.020Z,100687.98
2019-05-25T09:20:38.168Z,100691.53
2019-05-25T09:22:46.261Z,100699.17
2019-05-25T09:24:52.539Z,100696.36
2019-05-25T09:26:59.099Z,100694.39
2019-05-25T09:29:05.574Z,100696.73
2019-05-25T09:31:11.915Z,100692.27
2019-05-25T09:33:19.421Z,100694.58
2019-05-25T09:35:25.677Z,100691.53
2019-05-25T09:37:32.548Z,100688.50
2019-05-25T09:39:39.520Z,100680.79
2019-05-25T09:41:45.777Z,100688.22
2019-05-25T09:43:52.452Z,100685.59
2019-05-25T09:45:58.802Z,100684.94
2019-05-25T09:48:05.253Z,100696.07
2019-05-25T09:50:13.718Z,100692.58
2019-05-25T09:52:20.269Z,100687.28
2019-05-25T09:54:26.648Z,100699.73
2019-05-25T09:56:32.996Z,100705.93
2019-05-25T09:58:39.572Z,100698.66
2019-05-25T10:00:46.022Z,100691.34
2019-05-25T10:02:52.448Z,100698.98
2019-05-25T10:04:58.763Z,100701.95
2019-05-25T10:07:05.218Z,100692.55
2019-05-25T10:09:13.110Z,100684.94
2019-05-25T10:11:19.351Z,100691.45
2019-05-25T10:13:25.659Z,100686.60
2019-05-25T10:15:31.997Z,100686.78
2019-05-25T10:17:53.550Z,100693.08
2019-05-25T10:20:00.293Z,100689.43
2019-05-25T10:22:07.585Z,100685.59
2019-05-25T10:24:13.937Z,100682.13
2019-05-25T10:26:23.020Z,100683.48
2019-05-25T10:28:28.194Z,100682.45
2019-05-25T10:30:34.646Z,100682.38
2019-05-25T10:32:42.550Z,100683.70
2019-05-25T10:34:49.329Z,100689.91
2019-05-25T10:36:57.139Z,100680.11
2019-05-25T10:39:03.703Z,100686.67
2019-05-25T10:41:10.246Z,100693.73
2019-05-25T10:43:16.609Z,100688.52
2019-05-25T10:45:23.271Z,100684.11
2019-05-25T10:47:29.638Z,100689.97
2019-05-25T10:49:36.243Z,100700.12
2019-05-25T10:51:43.389Z,100687.00
2019-05-25T10:53:49.769Z,100691.55
2019-05-25T10:55:56.031Z,100694.45
2019-05-25T10:58:02.296Z,100698.08
2019-05-25T11:00:13.765Z,100699.18
2019-05-25T11:02:20.061Z,100696.79
2019-05-25T11:04:26.706Z,100696.79
2019-05-25T11:06:34.950Z,100701.65
2019-05-25T11:08:41.165Z,100702.23
2019-05-25T11:10:47.414Z,100704.18
2019-05-25T11:12:56.251Z,100706.26
2019-05-25T11:15:02.746Z,100703.59
2019-05-25T11:17:09.182Z,100697.27
2019-05-25T11:19:15.575Z,100701.08
2019-05-25T11:21:21.895Z,100695.28
2019-05-25T11:23:28.176Z,100685.12
2019-05-25T11:25:34.513Z,100698.85
2019-05-25T11:27:41.086Z,100700.80
2019-05-25T11:29:47.458Z,100700.20
2019-05-25T11:32:00.752Z,100695.49
2019-05-25T11:34:03.665Z,100701.28
2019-05-25T11:36:10.140Z,100689.59
2019-05-25T11:38:16.599Z,100685.97
2019-05-25T11:40:26.625Z,100696.19
2019-05-25T11:42:34.165Z,100694.98
2019-05-25T11:44:40.462Z,100694.92
2019-05-25T11:46:46.752Z,100692.09
2019-05-25T11:48:53.010Z,100699.42
2019-05-25T11:50:59.574Z,100702.45
2019-05-25T11:53:06.279Z,100705.09
2019-05-25T11:55:13.325Z,100703.93
2019-05-25T11:57:23.393Z,100706.93
2019-05-25T11:59:29.731Z,100705.13
2019-05-25T12:01:36.090Z,100703.61
2019-05-25T12:03:42.363Z,100704.72
2019-05-25T12:05:48.615Z,100708.64
2019-05-25T12:07:54.890Z,100715.48
2019-05-25T12:10:01.336Z,100702.55
2019-05-25T12:12:08.110Z,100710.84
2019-05-25T12:14:14.487Z,100712.69
2019-05-25T12:16:20.747Z,100708.69
2019-05-25T12:18:27.309Z,100710.73
2019-05-25T12:20:33.773Z,100707.83
2019-05-25T12:22:40.541Z,100708.09
2019-05-25T12:24:47.107Z,100717.98
2019-05-25T12:26:53.488Z,100717.93
2019-05-25T12:28:59.833Z,100720.14
2019-05-25T12:31:06.406Z,100718.19
2019-05-25T12:33:12.774Z,100719.59
2019-05-25T12:35:20.818Z,100717.36
2019-05-25T12:37:27.136Z,100718.44
2019-05-25T12:39:33.993Z,100713.73
2019-05-25T12:41:40.472Z,100715.27
2019-05-25T12:43:46.935Z,100714.59
2019-05-25T12:45:56.374Z,100719.38
2019-05-25T12:48:03.036Z,100715.73
2019-05-25T12:50:11.209Z,100725.18
2019-05-25T12:52:17.515Z,100723.59
2019-05-25T12:54:23.768Z,100723.75
2019-05-25T12:56:30.243Z,100721.52
2019-05-25T12:58:38.653Z,100726.17
2019-05-25T13:00:55.666Z,100723.64
2019-05-25T13:02:54.551Z,100728.58
2019-05-25T13:05:00.831Z,100720.52
2019-05-25T13:07:07.284Z,100725.37
2019-05-25T13:09:15.264Z,100734.34
2019-05-25T13:11:21.741Z,100739.16
2019-05-25T13:13:27.987Z,100730.44
2019-05-25T13:15:35.806Z,100731.06
2019-05-25T13:17:42.156Z,100733.33
2019-05-25T13:19:49.978Z,100728.27
2019-05-25T13:21:56.423Z,100726.21
2019-05-25T13:24:02.780Z,100719.81
2019-05-25T13:26:10.896Z,100733.45
2019-05-25T13:28:17.382Z,100720.42
2019-05-25T13:30:24.142Z,100725.73
2019-05-25T13:32:30.902Z,100726.69
2019-05-25T13:34:37.410Z,100718.66
2019-05-25T13:36:46.903Z,100717.42
2019-05-25T13:38:53.181Z,100730.53
2019-05-25T13:40:59.533Z,100723.77
2019-05-25T13:43:07.005Z,100717.08
2019-05-25T13:45:13.589Z,100723.02
2019-05-25T13:47:19.961Z,100727.84
2019-05-25T13:49:26.324Z,100727.61
2019-05-25T13:51:32.657Z,100725.28
2019-05-25T13:53:40.879Z,100723.81
2019-05-25T13:55:47.113Z,100731.36
2019-05-25T13:57:54.426Z,100729.91
2019-05-25T14:00:01.005Z,100730.29
2019-05-25T14:02:09.816Z,100731.72
2019-05-25T14:04:16.264Z,100727.03
2019-05-25T14:06:22.525Z,100722.86
2019-05-25T14:08:29.913Z,100726.77
2019-05-25T14:10:36.171Z,100733.58
2019-05-25T14:12:42.422Z,100732.78
2019-05-25T14:14:49.001Z,100734.05
2019-05-25T14:16:55.673Z,100733.60
2019-05-25T14:19:01.923Z,100733.35
2019-05-25T14:21:08.184Z,100730.06
2019-05-25T14:23:14.441Z,100730.92
2019-05-25T14:25:21.232Z,100728.83
2019-05-25T14:27:27.600Z,100730.88
2019-05-25T14:29:33.848Z,100730.06
2019-05-25T14:31:45.479Z,100725.50
2019-05-25T14:33:48.028Z,100733.53
2019-05-25T14:35:54.594Z,100733.48
2019-05-25T14:38:01.442Z,100723.61
2019-05-25T14:40:11.512Z,100728.15
2019-05-25T14:42:18.065Z,100721.60
2019-05-25T14:44:26.783Z,100724.47
2019-05-25T14:46:33.036Z,100721.55
2019-05-25T14:48:39.515Z,100719.84
2019-05-25T14:50:45.865Z,100720.73
2019-05-25T14:52:52.551Z,100724.75
2019-05-25T14:54:58.895Z,100715.17
2019-05-25T14:57:05.277Z,100708.77
2019-05-25T14:59:11.539Z,100710.88
2019-05-25T15:01:18.034Z,100709.58
2019-05-25T15:03:24.460Z,100709.32
2019-05-25T15:05:30.927Z,100715.16
2019-05-25T15:07:37.286Z,100704.53
2019-05-25T15:09:43.651Z,100707.27
2019-05-25T15:11:53.540Z,100711.87
2019-05-25T15:13:58.005Z,100712.68
2019-05-25T15:16:06.137Z,100716.11
2019-05-25T15:18:13.121Z,100717.91
2019-05-25T15:20:20.281Z,100716.27
2019-05-25T15:22:26.535Z,100721.75
2019-05-25T15:24:33.102Z,100718.69
2019-05-25T15:26:39.368Z,100717.02
2019-05-25T15:28:47.187Z,100715.95
2019-05-25T15:30:53.931Z,100710.72
2019-05-25T15:33:00.298Z,100719.27
2019-05-25T15:35:11.111Z,100718.98
2019-05-25T15:37:17.440Z,100726.51
2019-05-25T15:39:23.842Z,100721.36
2019-05-25T15:41:30.883Z,100726.28
2019-05-25T15:43:38.355Z,100717.58
2019-05-25T15:45:46.066Z,100725.58
2019-05-25T15:47:53.157Z,100725.61
2019-05-25T15:49:59.447Z,100719.23
2019-05-25T15:52:06.764Z,100717.33
2019-05-25T15:54:14.569Z,100722.51
2019-05-25T15:56:21.962Z,100725.74
2019-05-25T15:58:28.341Z,100728.80
2019-05-25T16:00:52.032Z,100726.78
2019-05-25T16:02:59.378Z,100727.09
2019-05-25T16:05:07.037Z,100733.20
2019-05-25T16:07:15.960Z,100734.08
2019-05-25T16:09:22.345Z,100732.91
2019-05-25T16:11:31.968Z,100730.00
2019-05-25T16:13:38.454Z,100733.65
2019-05-25T16:15:44.928Z,100733.98
2019-05-25T16:17:51.497Z,100730.83
2019-05-25T16:19:58.055Z,100727.05
2019-05-25T16:22:04.333Z,100717.75
2019-05-25T16:24:10.685Z,100728.55
2019-05-25T16:26:16.965Z,100721.08
2019-05-25T16:28:24.299Z,100728.73
2019-05-25T16:30:31.489Z,100724.17
2019-05-25T16:33:10.149Z,100724.52
2019-05-25T16:34:47.711Z,100726.38
2019-05-25T16:36:54.364Z,100720.27
2019-05-25T16:39:03.217Z,100720.47
2019-05-25T16:41:09.473Z,100729.20
2019-05-25T16:43:15.825Z,100726.51
2019-05-25T16:45:22.608Z,100728.06
2019-05-25T16:47:28.854Z,100726.81
2019-05-25T16:49:37.196Z,100729.16
2019-05-25T16:51:43.544Z,100734.78
2019-05-25T16:53:49.923Z,100736.62
2019-05-25T16:55:57.999Z,100730.66
2019-05-25T16:58:04.877Z,100733.39
2019-05-25T17:00:14.604Z,100729.72
2019-05-25T17:02:23.335Z,100733.54
2019-05-25T17:04:29.709Z,100734.72
2019-05-25T17:06:38.513Z,100737.64
2019-05-25T17:08:44.777Z,100743.82
2019-05-25T17:10:52.783Z,100746.48
2019-05-25T17:12:59.345Z,100741.75
2019-05-25T17:15:07.755Z,100742.02
2019-05-25T17:17:14.329Z,100750.38
2019-05-25T17:19:20.694Z,100752.30
2019-05-25T17:21:27.456Z,100751.34
2019-05-25T17:23:33.720Z,100746.41
2019-05-25T17:25:40.235Z,100746.86
2019-05-25T17:27:47.774Z,100749.56
2019-05-25T17:29:55.274Z,100755.35
2019-05-25T17:32:01.515Z,100755.34
2019-05-25T17:34:07.992Z,100753.73
2019-05-25T17:36:14.263Z,100763.48
2019-05-25T17:38:21.634Z,100756.72
2019-05-25T17:40:27.897Z,100758.70
2019-05-25T17:42:35.179Z,100764.30
2019-05-25T17:44:41.432Z,100764.20
2019-05-25T17:46:47.801Z,100768.83
2019-05-25T17:48:54.484Z,100769.84
2019-05-25T17:51:01.051Z,100769.55
2019-05-25T17:53:07.406Z,100766.58
2019-05-25T17:55:14.530Z,100774.33
2019-05-25T17:57:21.052Z,100774.04
2019-05-25T17:59:27.915Z,100776.58
2019-05-25T18:01:34.191Z,100771.77
2019-05-25T18:03:40.657Z,100773.63
2019-05-25T18:05:48.124Z,100772.62
2019-05-25T18:07:54.400Z,100779.02
2019-05-25T18:10:00.888Z,100776.10
2019-05-25T18:12:07.228Z,100778.48
2019-05-25T18:14:13.597Z,100780.94
2019-05-25T18:16:21.467Z,100773.63
2019-05-25T18:18:27.867Z,100782.73
2019-05-25T18:20:34.620Z,100786.98
2019-05-25T18:22:41.108Z,100789.86
2019-05-25T18:24:47.665Z,100788.31
2019-05-25T18:26:54.010Z,100791.30
2019-05-25T18:29:00.270Z,100791.09
2019-05-25T18:31:07.100Z,100781.30
2019-05-25T18:33:13.320Z,100783.80
2019-05-25T18:35:19.697Z,100785.06
2019-05-25T18:37:27.578Z,100789.42
2019-05-25T18:39:35.163Z,100793.19
2019-05-25T18:41:43.170Z,100794.80
2019-05-25T18:43:49.638Z,100783.17
2019-05-25T18:45:55.991Z,100797.52
2019-05-25T18:48:04.493Z,100806.53
2019-05-25T18:50:12.939Z,100807.77
2019-05-25T18:52:19.381Z,100803.66
2019-05-25T18:54:27.341Z,100809.63
2019-05-25T18:56:33.966Z,100816.48
2019-05-25T18:58:40.334Z,100820.58
2019-05-25T19:00:46.882Z,100821.22
2019-05-25T19:02:53.878Z,100823.77
2019-05-25T19:05:01.676Z,100830.38
2019-05-25T19:07:08.136Z,100831.45
2019-05-25T19:09:14.600Z,100834.72
2019-05-25T19:11:20.962Z,100839.53
2019-05-25T19:13:27.312Z,100847.31
2019-05-25T19:15:35.202Z,100846.19
2019-05-25T19:17:46.792Z,100845.62
2019-05-25T19:19:53.248Z,100843.53
2019-05-25T19:22:00.741Z,100846.84
2019-05-25T19:24:07.309Z,100838.44
2019-05-25T19:26:14.693Z,100852.31
2019-05-25T19:28:22.838Z,100846.91
2019-05-25T19:30:30.282Z,100851.16
2019-05-25T19:32:36.886Z,100847.08
2019-05-25T19:34:58.636Z,100844.95
2019-05-25T19:36:52.342Z,100844.50
2019-05-25T19:38:58.824Z,100850.30
2019-05-25T19:41:05.350Z,100847.42
2019-05-25T19:43:11.747Z,100854.63
2019-05-25T19:45:19.949Z,100849.85
2019-05-25T19:47:26.204Z,100855.69
2019-05-25T19:49:32.564Z,100850.86
2019-05-25T19:51:38.846Z,100857.91
2019-05-25T19:53:45.409Z,100860.05
2019-05-25T19:55:51.989Z,100860.05
2019-05-25T19:57:59.565Z,100864.84
2019-05-25T20:00:10.676Z,100861.59
2019-05-25T20:02:17.001Z,100861.73
2019-05-25T20:04:23.364Z,100870.86
2019-05-25T20:06:30.123Z,100865.34
2019-05-25T20:08:37.414Z,100872.45
2019-05-25T20:10:44.074Z,100871.22
2019-05-25T20:12:50.447Z,100874.86
2019-05-25T20:14:56.852Z,100874.77
2019-05-25T20:17:03.787Z,100868.86
2019-05-25T20:19:10.154Z,100869.05
2019-05-25T20:21:16.810Z,100869.64
2019-05-25T20:23:24.718Z,100870.23
2019-05-25T20:25:31.077Z,100877.87
2019-05-25T20:27:39.067Z,100875.83
2019-05-25T20:29:45.361Z,100877.37
2019-05-25T20:31:52.107Z,100881.52
2019-05-25T20:33:58.488Z,100877.69
2019-05-25T20:36:05.660Z,100876.95
2019-05-25T20:38:12.683Z,100882.09
2019-05-25T20:40:19.307Z,100880.66
2019-05-25T20:42:25.570Z,100883.48
2019-05-25T20:44:32.055Z,100889.80
2019-05-25T20:46:38.387Z,100890.50
2019-05-25T20:48:45.168Z,100889.19
2019-05-25T20:50:52.966Z,100888.45
2019-05-25T20:53:00.949Z,100882.98
2019-05-25T20:55:08.836Z,100893.27
2019-05-25T20:57:15.531Z,100891.47
2019-05-25T20:59:22.104Z,100892.18
2019-05-25T21:01:28.462Z,100884.44
2019-05-25T21:03:35.142Z,100883.25
2019-05-25T21:05:50.226Z,100885.56
2019-05-25T21:07:49.489Z,100879.45
2019-05-25T21:09:59.135Z,100873.20
2019-05-25T21:12:08.487Z,100879.91
2019-05-25T21:14:14.927Z,100877.56
2019-05-25T21:16:22.957Z,100876.02
2019-05-25T21:18:29.522Z,100875.88
2019-05-25T21:20:36.273Z,100885.16
2019-05-25T21:22:42.647Z,100881.73
2019-05-25T21:24:49.109Z,100878.06
2019-05-25T21:26:55.475Z,100875.67
2019-05-25T21:29:02.125Z,100874.28
2019-05-25T21:31:08.375Z,100878.81
2019-05-25T21:33:14.854Z,100878.27
2019-05-25T21:35:21.334Z,100876.83
2019-05-25T21:37:28.330Z,100877.56
2019-05-25T21:39:34.734Z,100885.14
2019-05-25T21:41:41.149Z,100879.12
2019-05-25T21:43:47.611Z,100880.85
2019-05-25T21:45:55.394Z,100878.96
2019-05-25T21:48:01.966Z,100876.99
2019-05-25T21:50:09.791Z,100880.91
2019-05-25T21:52:16.332Z,100879.13
2019-05-25T21:54:22.692Z,100888.73
2019-05-25T21:56:29.142Z,100880.38
2019-05-25T21:58:37.467Z,100879.51
2019-05-25T22:00:44.341Z,100883.45
2019-05-25T22:02:50.800Z,100879.92
2019-05-25T22:04:57.061Z,100883.25
2019-05-25T22:07:03.726Z,100880.87
2019-05-25T22:09:12.028Z,100879.39
2019-05-25T22:11:18.294Z,100880.66
2019-05-25T22:13:28.723Z,100873.33
2019-05-25T22:15:32.664Z,100877.00
2019-05-25T22:17:39.486Z,100877.04
2019-05-25T22:19:45.885Z,100874.15
2019-05-25T22:21:53.287Z,100878.27
2019-05-25T22:23:59.744Z,100867.03
2019-05-25T22:26:06.134Z,100875.99
2019-05-25T22:28:14.020Z,100876.94
2019-05-25T22:30:22.590Z,100878.45
2019-05-25T22:32:29.078Z,100871.47
2019-05-25T22:34:35.345Z,100880.33
2019-05-25T22:36:41.704Z,100880.09
2019-05-25T22:38:48.285Z,100876.30
2019-05-25T22:40:54.858Z,100875.92
2019-05-25T22:43:01.332Z,100881.27
2019-05-25T22:45:12.439Z,100879.19
2019-05-25T22:47:19.048Z,100877.05
2019-05-25T22:49:25.630Z,100872.09
2019-05-25T22:51:32.083Z,100866.69
2019-05-25T22:53:38.552Z,100862.86
2019-05-25T22:55:44.839Z,100876.16
2019-05-25T22:57:51.205Z,100869.95
2019-05-25T22:59:57.636Z,100865.39
2019-05-25T23:02:03.899Z,100869.23
2019-05-25T23:04:10.159Z,100870.80
2019-05-25T23:06:16.619Z,100868.07
2019-05-25T23:08:23.614Z,100864.36
2019-05-25T23:10:29.964Z,100868.11
2019-05-25T23:12:36.340Z,100872.81
2019-05-25T23:14:43.771Z,100871.88
2019-05-25T23:16:50.069Z,100870.01
2019-05-25T23:18:56.751Z,100880.79
2019-05-25T23:21:03.017Z,100876.95
2019-05-25T23:23:09.365Z,100883.23
2019-05-25T23:25:15.831Z,100883.72
2019-05-25T23:27:22.397Z,100885.58
2019-05-25T23:29:28.974Z,100880.61
2019-05-25T23:31:35.438Z,100882.07
2019-05-25T23:33:41.996Z,100879.96
2019-05-25T23:35:48.265Z,100887.34
2019-05-25T23:37:54.535Z,100882.42
2019-05-25T23:40:01.785Z,100884.95
2019-05-25T23:42:08.295Z,100880.24
2019-05-25T23:44:14.944Z,100883.83
2019-05-25T23:46:22.433Z,100885.50
2019-05-25T23:48:28.905Z,100886.36
2019-05-25T23:50:35.563Z,100879.30
2019-05-25T23:52:41.926Z,100877.98
2019-05-25T23:54:48.402Z,100872.92
2019-05-25T23:56:54.760Z,100883.63
2019-05-25T23:59:02.049Z,100883.33
